METAR AND TAF INFORMATION
METAR FOR NTAA
ADDS - METARS form results

(0842 UTC 16 December 2019)
Data provider http://aviationweather.gov/metar/data/
 
METAR text: NTAA 160830Z VRB02KT 9999 FEW020 SCT060 BKN120 23/22 Q1010 TEMPO 06018G28KT 2000 +SHRA SCT010 BKN016CB OVC030
Conditions at: NTAA (TAHITI-FAAA POLY, WS) observed 0830 UTC 16 December 2019
Temperature: 23.0°C (73°F)
Dewpoint: 22.0°C (72°F) [RH = 94%]
Pressure (altimeter): 29.82 inches Hg (1010.0 mb)
Winds: variable direction winds at 2 MPH (2 knots; 1.0 m/s)
Visibility: 6 or more miles (10+ km)
Ceiling: 12000 feet AGL
Clouds: few clouds at 2000 feet AGL
scattered clouds at 6000 feet AGL
broken clouds at 12000 feet AGL
Weather: no significant weather observed at this time

METAR text: NTAA 160800Z 20007KT 170V230 8000 -RA FEW020 SCT056 BKN066 23/22 Q1010 TEMPO 06018G28KT 2000 +SHRA SCT010 BKN016CB OVC030
Conditions at: NTAA (TAHITI-FAAA POLY, WS) observed 0800 UTC 16 December 2019
Temperature: 23.0°C (73°F)
Dewpoint: 22.0°C (72°F) [RH = 94%]
Pressure (altimeter): 29.82 inches Hg (1010.0 mb)
Winds: from the SSW (200 degrees) at 8 MPH (7 knots; 3.6 m/s)
Visibility: 5 miles ( 8 km)
Ceiling: 6600 feet AGL
Clouds: few clouds at 2000 feet AGL
scattered clouds at 5600 feet AGL
broken clouds at 6600 feet AGL
Weather: -RA  (light rain)

Forecast for: NTAA (TAHITI-FAAA POLY, WS)
Text: TAF NTAA 160500Z 1606/1712 VRB05KT 5000 RA FEW016TCU SCT016 BKN040 BKN080
Forecast period: 0600 UTC 16 December 2019 to 1200 UTC 17 December 2019
Forecast type: FROM: standard forecast or significant change
Winds: variable direction winds at 6 MPH (5 knots; 2.6 m/s)
Visibility: 3 miles (5 km)
Ceiling: 4000 feet AGL
Clouds: few clouds at 1600 feet AGL
scattered clouds at 1600 feet AGL
broken clouds at 4000 feet AGL
Weather: RA  (moderate rain)
Text: PROB40
Forecast period: 0600 UTC 16 December 2019 to 1200 UTC 17 December 2019
Forecast type: TEMPORARY: The following changes expected for less than half the time period
Winds: from the NE (50 degrees) at 18 MPH (16 knots; 8.2 m/s)
gusting to 30 MPH (26 knots; 13.4 m/s)
Visibility: 1.24 miles (2.00 km)
Ceiling: 1600 feet AGL
Clouds: scattered clouds at 1000 feet AGL
broken clouds at 1600 feet AGL
overcast cloud deck at 3000 feet AGL
Weather: SHRA  (rain showers)

 AIRPORT MAP

 RUNWAY INFORMATION
Runway 04 Runway length 11360 ft Runway width 148 ft
Runway elevation 5 ft Runway displaced threshold 1120 ft Runway heading 54
Runway 22 Runway length 11360 ft Runway width 148 ft
Runway elevation 5 ft Runway displaced threshold 390 ft Runway heading 234

 AIRPORT FREQUENCIES
Type APP Name APP Frequency 118.1 MHZ
Type ATIS Name ATIS Frequency 128.8 MHZ
Type GND Name GND Frequency 121.9 MHZ
Type TWR Name TWR Frequency 118.1 MHZ

 AIRPORT NEAR NAVIGATION AIDS
Type NDB Name Tahiti Faaa Frequency 305 KHZ
Type VOR-DME Name Tahiti Faaa Frequency 112900 KHZ